Port Hope, Michigan
Current Conditions -  °F | °C
As of 7:59 PM on Friday 24 Oct 2014 (Local Time) from KBAX Reporting Station
Scattered Clouds Scattered Clouds  
Wind Chill: 50°   Ceiling: Unl
Heat Index: 50°   Visibility: 10mi
Dew Point: 46°   Wind: 0mph
Humidity: 86%   Direction: NA
Pressure: 29.96"   Gusts: NA
Location:  43.94°N, 82.71°W
Report Text: KBAX 242359Z AUTO 00000KT 10SM SCT028 10/08 A2996 RMK AO2 T01010079 10159 20101
Loading
Personal Weather Stations






























Interactive Weather Map
Tropical Storm Tracking
New forecast layout! Learn more

10-Day Weather Forecast

Advertisements
Track Severe Weather on mobile